KDLF/DLF METAR and TAF weather

Enter ICAO airport designator
Station Type Date Time Source
KDLF METAR 2020/05/30 05:56 UTC NOAA

KDLF 300556Z AUTO 01005KT 10SM CLR 20/15 A3011 RMK AO2 SLP185 T02040147 10307 20204 403310185 50006 $


Station Type Date Time Source
KDLF Decoded METAR 2020/05/30 05:56 UTC NOAA

Laughlin, Laughlin Air Force Base Auxiliary Airfield, TX, United States (KDLF) 29-07-00N 100-28-00W 294M
May 30, 2020 - 01:56 AM EDT / 2020.05.30 0556 UTC
Wind: from the N (010 degrees) at 6 MPH (5 KT):0
Visibility: 10 mile(s):0
Sky conditions: clear
Temperature: 68.7 F (20.4 C)
Dew Point: 58.5 F (14.7 C)
Relative Humidity: 69%
Pressure (altimeter): 30.11 in. Hg (1019 hPa)
Pressure tendency: 0.02 inches (0.6 hPa) higher than three hours ago
ob: KDLF 300556Z AUTO 01005KT 10SM CLR 20/15 A3011 RMK AO2 SLP185 T02040147 10307 20204 403310185 50006
cycle: 6

Station Type Date Time Source
KDLF TAF 2020/05/29 19:36 UTC NOAA

TAF KDLF 291900Z 2919/3101 36006KT 9999 SCT050 SCT250 QNH3002INS
BECMG 2921/2922 09009KT 9999 FEW060 SCT250 QNH2998INS
BECMG 3003/3004 VRB06KT 9999 FEW070 QNH3004INS
BECMG 3014/3015 15009KT 9999 SCT060 QNH3001INS
BECMG 3100/3101 VRB06KT 9999 FEW250 QNH3003INS TX33/2921Z TN18/3011Z

Example: see airport list